sensor_id;sensor_type;location;lat;lon;timestamp;P1;durP1;ratioP1;P2;durP2;ratioP2
6852;SDS011;3465;42.144;24.722;2022-07-29T00:00:44;4.80;;;2.63;;
6852;SDS011;3465;42.144;24.722;2022-07-29T00:03:13;7.47;;;2.63;;
6852;SDS011;3465;42.144;24.722;2022-07-29T00:05:39;9.55;;;2.90;;
6852;SDS011;3465;42.144;24.722;2022-07-29T00:08:06;2.97;;;2.45;;
6852;SDS011;3465;42.144;24.722;2022-07-29T00:10:32;5.22;;;2.33;;
6852;SDS011;3465;42.144;24.722;2022-07-29T00:12:58;4.30;;;2.63;;
6852;SDS011;3465;42.144;24.722;2022-07-29T00:15:24;4.55;;;2.55;;
6852;SDS011;3465;42.144;24.722;2022-07-29T00:17:49;4.38;;;2.95;;
6852;SDS011;3465;42.144;24.722;2022-07-29T00:20:15;3.45;;;2.70;;
6852;SDS011;3465;42.144;24.722;2022-07-29T00:22:40;4.47;;;2.80;;
6852;SDS011;3465;42.144;24.722;2022-07-29T00:25:06;4.60;;;2.85;;
6852;SDS011;3465;42.144;24.722;2022-07-29T00:27:32;3.92;;;3.10;;
6852;SDS011;3465;42.144;24.722;2022-07-29T00:29:58;5.70;;;2.90;;
6852;SDS011;3465;42.144;24.722;2022-07-29T00:32:24;6.28;;;2.80;;
6852;SDS011;3465;42.144;24.722;2022-07-29T00:34:49;4.20;;;2.80;;
6852;SDS011;3465;42.144;24.722;2022-07-29T00:37:36;5.55;;;2.97;;
6852;SDS011;3465;42.144;24.722;2022-07-29T00:40:02;5.13;;;2.85;;
6852;SDS011;3465;42.144;24.722;2022-07-29T00:42:28;5.40;;;3.00;;
6852;SDS011;3465;42.144;24.722;2022-07-29T00:44:53;7.65;;;3.40;;
6852;SDS011;3465;42.144;24.722;2022-07-29T00:47:18;7.97;;;3.65;;
6852;SDS011;3465;42.144;24.722;2022-07-29T00:49:44;4.38;;;3.50;;
6852;SDS011;3465;42.144;24.722;2022-07-29T00:52:10;5.82;;;3.40;;
6852;SDS011;3465;42.144;24.722;2022-07-29T00:54:37;4.60;;;3.22;;
6852;SDS011;3465;42.144;24.722;2022-07-29T00:57:04;6.43;;;3.63;;
6852;SDS011;3465;42.144;24.722;2022-07-29T00:59:34;8.02;;;3.50;;
6852;SDS011;3465;42.144;24.722;2022-07-29T01:02:00;6.00;;;3.78;;
6852;SDS011;3465;42.144;24.722;2022-07-29T01:04:25;5.18;;;3.55;;
6852;SDS011;3465;42.144;24.722;2022-07-29T01:06:51;5.63;;;3.92;;
6852;SDS011;3465;42.144;24.722;2022-07-29T01:09:19;5.78;;;3.70;;
6852;SDS011;3465;42.144;24.722;2022-07-29T01:11:45;5.55;;;3.72;;
6852;SDS011;3465;42.144;24.722;2022-07-29T01:14:12;7.18;;;3.88;;
6852;SDS011;3465;42.144;24.722;2022-07-29T01:16:42;6.57;;;4.03;;
6852;SDS011;3465;42.144;24.722;2022-07-29T01:20:01;7.93;;;3.47;;
6852;SDS011;3465;42.144;24.722;2022-07-29T01:22:27;6.30;;;3.60;;
6852;SDS011;3465;42.144;24.722;2022-07-29T01:28:07;8.32;;;3.78;;
6852;SDS011;3465;42.144;24.722;2022-07-29T01:30:39;5.90;;;3.47;;
6852;SDS011;3465;42.144;24.722;2022-07-29T01:33:10;4.70;;;3.55;;
6852;SDS011;3465;42.144;24.722;2022-07-29T01:35:58;7.10;;;3.53;;
6852;SDS011;3465;42.144;24.722;2022-07-29T01:38:30;6.13;;;3.55;;
6852;SDS011;3465;42.144;24.722;2022-07-29T01:41:03;7.78;;;3.50;;
6852;SDS011;3465;42.144;24.722;2022-07-29T01:46:31;6.75;;;3.67;;
6852;SDS011;3465;42.144;24.722;2022-07-29T01:49:00;8.88;;;3.70;;
6852;SDS011;3465;42.144;24.722;2022-07-29T01:52:08;6.43;;;3.40;;
6852;SDS011;3465;42.144;24.722;2022-07-29T01:54:43;6.88;;;3.67;;
6852;SDS011;3465;42.144;24.722;2022-07-29T01:57:13;5.55;;;3.35;;
6852;SDS011;3465;42.144;24.722;2022-07-29T01:59:42;8.73;;;4.28;;
6852;SDS011;3465;42.144;24.722;2022-07-29T02:02:10;8.05;;;4.10;;
6852;SDS011;3465;42.144;24.722;2022-07-29T02:04:38;6.53;;;3.70;;
6852;SDS011;3465;42.144;24.722;2022-07-29T02:07:07;5.43;;;3.58;;
6852;SDS011;3465;42.144;24.722;2022-07-29T02:09:34;6.93;;;3.83;;
6852;SDS011;3465;42.144;24.722;2022-07-29T02:12:03;5.15;;;3.72;;
6852;SDS011;3465;42.144;24.722;2022-07-29T02:14:33;4.95;;;3.10;;
6852;SDS011;3465;42.144;24.722;2022-07-29T02:17:01;11.15;;;3.80;;
6852;SDS011;3465;42.144;24.722;2022-07-29T02:19:28;5.53;;;3.80;;
6852;SDS011;3465;42.144;24.722;2022-07-29T02:21:56;7.78;;;3.75;;
6852;SDS011;3465;42.144;24.722;2022-07-29T02:24:23;9.60;;;3.97;;
6852;SDS011;3465;42.144;24.722;2022-07-29T02:26:51;5.60;;;3.67;;
6852;SDS011;3465;42.144;24.722;2022-07-29T02:29:20;7.22;;;3.90;;
6852;SDS011;3465;42.144;24.722;2022-07-29T02:31:47;6.40;;;3.90;;
6852;SDS011;3465;42.144;24.722;2022-07-29T02:34:15;6.63;;;3.60;;
6852;SDS011;3465;42.144;24.722;2022-07-29T02:36:43;5.13;;;3.17;;
6852;SDS011;3465;42.144;24.722;2022-07-29T02:39:10;6.15;;;3.30;;
6852;SDS011;3465;42.144;24.722;2022-07-29T02:41:42;7.30;;;3.58;;
6852;SDS011;3465;42.144;24.722;2022-07-29T02:44:15;6.95;;;3.30;;
6852;SDS011;3465;42.144;24.722;2022-07-29T02:46:51;6.95;;;3.60;;
6852;SDS011;3465;42.144;24.722;2022-07-29T02:52:04;8.43;;;3.70;;
6852;SDS011;3465;42.144;24.722;2022-07-29T02:57:21;6.75;;;4.25;;
6852;SDS011;3465;42.144;24.722;2022-07-29T02:59:57;6.20;;;4.05;;
6852;SDS011;3465;42.144;24.722;2022-07-29T03:02:25;8.82;;;4.25;;
6852;SDS011;3465;42.144;24.722;2022-07-29T03:04:52;8.93;;;4.45;;
6852;SDS011;3465;42.144;24.722;2022-07-29T03:07:20;7.15;;;4.32;;
6852;SDS011;3465;42.144;24.722;2022-07-29T03:09:46;10.15;;;4.30;;
6852;SDS011;3465;42.144;24.722;2022-07-29T03:12:12;9.65;;;4.22;;
6852;SDS011;3465;42.144;24.722;2022-07-29T03:14:39;7.07;;;4.18;;
6852;SDS011;3465;42.144;24.722;2022-07-29T03:17:05;6.70;;;4.60;;
6852;SDS011;3465;42.144;24.722;2022-07-29T03:19:31;8.35;;;4.72;;
6852;SDS011;3465;42.144;24.722;2022-07-29T03:21:57;12.52;;;4.93;;
6852;SDS011;3465;42.144;24.722;2022-07-29T03:24:31;7.50;;;4.15;;
6852;SDS011;3465;42.144;24.722;2022-07-29T03:26:57;10.25;;;4.78;;
6852;SDS011;3465;42.144;24.722;2022-07-29T03:29:23;8.52;;;4.90;;
6852;SDS011;3465;42.144;24.722;2022-07-29T03:31:49;8.32;;;4.50;;
6852;SDS011;3465;42.144;24.722;2022-07-29T03:34:15;14.02;;;4.63;;
6852;SDS011;3465;42.144;24.722;2022-07-29T03:36:40;7.22;;;4.53;;
6852;SDS011;3465;42.144;24.722;2022-07-29T03:39:06;9.55;;;4.85;;
6852;SDS011;3465;42.144;24.722;2022-07-29T03:41:34;13.55;;;4.47;;
6852;SDS011;3465;42.144;24.722;2022-07-29T03:44:02;10.10;;;4.60;;
6852;SDS011;3465;42.144;24.722;2022-07-29T03:46:30;7.88;;;4.80;;
6852;SDS011;3465;42.144;24.722;2022-07-29T03:48:59;9.68;;;5.10;;
6852;SDS011;3465;42.144;24.722;2022-07-29T03:51:28;9.32;;;5.20;;
6852;SDS011;3465;42.144;24.722;2022-07-29T03:53:53;6.57;;;4.63;;
6852;SDS011;3465;42.144;24.722;2022-07-29T03:56:21;26.35;;;5.43;;
6852;SDS011;3465;42.144;24.722;2022-07-29T03:58:51;9.20;;;4.93;;
6852;SDS011;3465;42.144;24.722;2022-07-29T04:01:18;14.35;;;5.50;;
6852;SDS011;3465;42.144;24.722;2022-07-29T04:03:44;9.57;;;5.40;;
6852;SDS011;3465;42.144;24.722;2022-07-29T04:06:10;12.75;;;5.43;;
6852;SDS011;3465;42.144;24.722;2022-07-29T04:08:36;9.68;;;5.13;;
6852;SDS011;3465;42.144;24.722;2022-07-29T04:11:02;10.20;;;5.50;;
6852;SDS011;3465;42.144;24.722;2022-07-29T04:13:29;10.85;;;5.38;;
6852;SDS011;3465;42.144;24.722;2022-07-29T04:15:55;14.35;;;5.20;;
6852;SDS011;3465;42.144;24.722;2022-07-29T04:18:20;12.75;;;5.15;;
6852;SDS011;3465;42.144;24.722;2022-07-29T04:20:46;16.92;;;4.80;;
6852;SDS011;3465;42.144;24.722;2022-07-29T04:23:11;9.25;;;4.70;;
6852;SDS011;3465;42.144;24.722;2022-07-29T04:25:37;11.93;;;5.15;;
6852;SDS011;3465;42.144;24.722;2022-07-29T04:28:04;8.77;;;5.13;;
6852;SDS011;3465;42.144;24.722;2022-07-29T04:30:30;12.85;;;5.50;;
6852;SDS011;3465;42.144;24.722;2022-07-29T04:32:56;13.07;;;5.10;;
6852;SDS011;3465;42.144;24.722;2022-07-29T04:35:21;21.45;;;6.07;;
6852;SDS011;3465;42.144;24.722;2022-07-29T04:37:47;12.05;;;5.50;;
6852;SDS011;3465;42.144;24.722;2022-07-29T04:40:12;9.68;;;5.72;;
6852;SDS011;3465;42.144;24.722;2022-07-29T04:42:38;29.30;;;6.38;;
6852;SDS011;3465;42.144;24.722;2022-07-29T04:45:04;12.52;;;5.38;;
6852;SDS011;3465;42.144;24.722;2022-07-29T04:47:30;9.60;;;5.10;;
6852;SDS011;3465;42.144;24.722;2022-07-29T04:49:55;9.50;;;5.10;;
6852;SDS011;3465;42.144;24.722;2022-07-29T04:52:21;6.45;;;5.13;;
6852;SDS011;3465;42.144;24.722;2022-07-29T04:54:47;9.38;;;5.50;;
6852;SDS011;3465;42.144;24.722;2022-07-29T04:57:12;14.27;;;5.65;;
6852;SDS011;3465;42.144;24.722;2022-07-29T04:59:38;14.63;;;5.55;;
6852;SDS011;3465;42.144;24.722;2022-07-29T05:02:03;7.90;;;5.03;;
6852;SDS011;3465;42.144;24.722;2022-07-29T05:04:29;8.90;;;5.60;;
6852;SDS011;3465;42.144;24.722;2022-07-29T05:06:54;7.55;;;5.22;;
6852;SDS011;3465;42.144;24.722;2022-07-29T05:09:19;9.73;;;5.20;;
6852;SDS011;3465;42.144;24.722;2022-07-29T05:11:45;8.82;;;5.53;;
6852;SDS011;3465;42.144;24.722;2022-07-29T05:14:11;13.95;;;5.70;;
6852;SDS011;3465;42.144;24.722;2022-07-29T05:16:36;13.88;;;6.07;;
6852;SDS011;3465;42.144;24.722;2022-07-29T05:19:02;9.30;;;5.95;;
6852;SDS011;3465;42.144;24.722;2022-07-29T05:21:27;9.38;;;5.07;;
6852;SDS011;3465;42.144;24.722;2022-07-29T05:23:52;11.15;;;5.22;;
6852;SDS011;3465;42.144;24.722;2022-07-29T05:26:18;9.35;;;5.43;;
6852;SDS011;3465;42.144;24.722;2022-07-29T05:28:43;10.27;;;5.32;;
6852;SDS011;3465;42.144;24.722;2022-07-29T05:31:09;12.00;;;5.53;;
6852;SDS011;3465;42.144;24.722;2022-07-29T05:33:34;11.88;;;5.32;;
6852;SDS011;3465;42.144;24.722;2022-07-29T05:35:59;11.75;;;5.65;;
6852;SDS011;3465;42.144;24.722;2022-07-29T05:38:25;8.85;;;4.82;;
6852;SDS011;3465;42.144;24.722;2022-07-29T05:40:50;7.88;;;4.68;;
6852;SDS011;3465;42.144;24.722;2022-07-29T05:43:16;11.75;;;4.72;;
6852;SDS011;3465;42.144;24.722;2022-07-29T05:45:41;9.20;;;4.65;;
6852;SDS011;3465;42.144;24.722;2022-07-29T05:48:07;7.40;;;4.82;;
6852;SDS011;3465;42.144;24.722;2022-07-29T05:50:32;5.53;;;4.22;;
6852;SDS011;3465;42.144;24.722;2022-07-29T05:52:57;8.68;;;4.90;;
6852;SDS011;3465;42.144;24.722;2022-07-29T05:55:23;12.27;;;4.78;;
6852;SDS011;3465;42.144;24.722;2022-07-29T05:57:48;8.45;;;4.97;;
6852;SDS011;3465;42.144;24.722;2022-07-29T06:00:13;10.93;;;5.50;;
6852;SDS011;3465;42.144;24.722;2022-07-29T06:02:39;9.15;;;5.72;;
6852;SDS011;3465;42.144;24.722;2022-07-29T06:05:05;9.52;;;5.50;;
6852;SDS011;3465;42.144;24.722;2022-07-29T06:07:30;10.35;;;6.18;;
6852;SDS011;3465;42.144;24.722;2022-07-29T06:09:57;10.63;;;6.10;;
6852;SDS011;3465;42.144;24.722;2022-07-29T06:12:22;11.68;;;6.53;;
6852;SDS011;3465;42.144;24.722;2022-07-29T06:14:48;11.15;;;5.85;;
6852;SDS011;3465;42.144;24.722;2022-07-29T06:17:15;9.02;;;6.30;;
6852;SDS011;3465;42.144;24.722;2022-07-29T06:19:41;12.85;;;6.40;;
6852;SDS011;3465;42.144;24.722;2022-07-29T06:22:06;11.25;;;6.28;;
6852;SDS011;3465;42.144;24.722;2022-07-29T06:24:31;8.70;;;6.20;;
6852;SDS011;3465;42.144;24.722;2022-07-29T06:26:57;10.13;;;6.07;;
6852;SDS011;3465;42.144;24.722;2022-07-29T06:29:22;10.82;;;6.30;;
6852;SDS011;3465;42.144;24.722;2022-07-29T06:31:48;9.10;;;5.70;;
6852;SDS011;3465;42.144;24.722;2022-07-29T06:34:13;14.60;;;5.95;;
6852;SDS011;3465;42.144;24.722;2022-07-29T06:36:39;10.27;;;5.28;;
6852;SDS011;3465;42.144;24.722;2022-07-29T06:39:07;7.90;;;5.53;;
6852;SDS011;3465;42.144;24.722;2022-07-29T06:41:36;10.65;;;5.57;;
6852;SDS011;3465;42.144;24.722;2022-07-29T06:44:01;8.82;;;5.40;;
6852;SDS011;3465;42.144;24.722;2022-07-29T06:46:27;9.88;;;4.95;;
6852;SDS011;3465;42.144;24.722;2022-07-29T06:48:53;9.90;;;5.40;;
6852;SDS011;3465;42.144;24.722;2022-07-29T06:51:18;12.48;;;4.88;;
6852;SDS011;3465;42.144;24.722;2022-07-29T06:53:47;7.00;;;5.35;;
6852;SDS011;3465;42.144;24.722;2022-07-29T06:56:12;6.10;;;5.13;;
6852;SDS011;3465;42.144;24.722;2022-07-29T06:58:38;8.30;;;4.82;;
6852;SDS011;3465;42.144;24.722;2022-07-29T07:01:05;12.02;;;5.20;;
6852;SDS011;3465;42.144;24.722;2022-07-29T07:03:31;9.65;;;5.40;;
6852;SDS011;3465;42.144;24.722;2022-07-29T07:05:57;10.25;;;5.53;;
6852;SDS011;3465;42.144;24.722;2022-07-29T07:08:23;9.00;;;5.40;;
6852;SDS011;3465;42.144;24.722;2022-07-29T07:10:49;8.57;;;5.68;;
6852;SDS011;3465;42.144;24.722;2022-07-29T07:13:15;6.50;;;4.93;;
6852;SDS011;3465;42.144;24.722;2022-07-29T07:15:42;10.70;;;5.32;;
6852;SDS011;3465;42.144;24.722;2022-07-29T07:18:13;10.95;;;4.50;;
6852;SDS011;3465;42.144;24.722;2022-07-29T07:20:40;12.20;;;5.78;;
6852;SDS011;3465;42.144;24.722;2022-07-29T07:23:05;5.93;;;4.70;;
6852;SDS011;3465;42.144;24.722;2022-07-29T07:25:31;4.65;;;4.22;;
6852;SDS011;3465;42.144;24.722;2022-07-29T07:27:57;8.77;;;4.95;;
6852;SDS011;3465;42.144;24.722;2022-07-29T07:30:22;5.72;;;4.40;;
6852;SDS011;3465;42.144;24.722;2022-07-29T07:32:48;8.85;;;4.20;;
6852;SDS011;3465;42.144;24.722;2022-07-29T07:35:13;5.93;;;4.75;;
6852;SDS011;3465;42.144;24.722;2022-07-29T07:37:39;8.57;;;4.65;;
6852;SDS011;3465;42.144;24.722;2022-07-29T07:40:09;5.72;;;4.60;;
6852;SDS011;3465;42.144;24.722;2022-07-29T07:42:36;10.95;;;5.10;;
6852;SDS011;3465;42.144;24.722;2022-07-29T07:45:03;8.10;;;4.95;;
6852;SDS011;3465;42.144;24.722;2022-07-29T07:47:29;7.55;;;4.47;;
6852;SDS011;3465;42.144;24.722;2022-07-29T07:49:55;15.27;;;4.70;;
6852;SDS011;3465;42.144;24.722;2022-07-29T07:52:20;6.75;;;4.60;;
6852;SDS011;3465;42.144;24.722;2022-07-29T07:54:46;8.93;;;4.50;;
6852;SDS011;3465;42.144;24.722;2022-07-29T07:57:13;5.60;;;4.60;;
6852;SDS011;3465;42.144;24.722;2022-07-29T07:59:39;5.10;;;4.40;;
6852;SDS011;3465;42.144;24.722;2022-07-29T08:02:05;5.93;;;4.15;;
6852;SDS011;3465;42.144;24.722;2022-07-29T08:04:31;5.85;;;4.65;;
6852;SDS011;3465;42.144;24.722;2022-07-29T08:06:57;3.92;;;3.22;;
6852;SDS011;3465;42.144;24.722;2022-07-29T08:09:24;4.43;;;3.00;;
6852;SDS011;3465;42.144;24.722;2022-07-29T08:11:50;4.85;;;3.03;;
6852;SDS011;3465;42.144;24.722;2022-07-29T08:14:16;7.50;;;3.53;;
6852;SDS011;3465;42.144;24.722;2022-07-29T08:16:41;16.02;;;4.13;;
6852;SDS011;3465;42.144;24.722;2022-07-29T08:19:07;7.22;;;4.25;;
6852;SDS011;3465;42.144;24.722;2022-07-29T08:21:34;5.05;;;3.78;;
6852;SDS011;3465;42.144;24.722;2022-07-29T08:23:59;6.25;;;3.90;;
6852;SDS011;3465;42.144;24.722;2022-07-29T08:26:43;10.50;;;2.85;;
6852;SDS011;3465;42.144;24.722;2022-07-29T08:29:09;4.45;;;2.85;;
6852;SDS011;3465;42.144;24.722;2022-07-29T08:31:38;4.63;;;3.10;;
6852;SDS011;3465;42.144;24.722;2022-07-29T08:34:04;3.50;;;2.90;;
6852;SDS011;3465;42.144;24.722;2022-07-29T08:36:30;5.65;;;2.90;;
6852;SDS011;3465;42.144;24.722;2022-07-29T08:38:57;4.55;;;2.75;;
6852;SDS011;3465;42.144;24.722;2022-07-29T08:41:23;6.53;;;2.95;;
6852;SDS011;3465;42.144;24.722;2022-07-29T08:43:49;5.93;;;2.70;;
6852;SDS011;3465;42.144;24.722;2022-07-29T08:46:16;4.00;;;2.78;;
6852;SDS011;3465;42.144;24.722;2022-07-29T08:48:42;3.35;;;2.88;;
6852;SDS011;3465;42.144;24.722;2022-07-29T08:51:08;3.20;;;2.70;;
6852;SDS011;3465;42.144;24.722;2022-07-29T08:53:40;4.95;;;2.70;;
6852;SDS011;3465;42.144;24.722;2022-07-29T08:56:07;5.90;;;2.75;;
6852;SDS011;3465;42.144;24.722;2022-07-29T08:58:41;5.70;;;2.75;;
6852;SDS011;3465;42.144;24.722;2022-07-29T09:01:07;3.03;;;2.72;;
6852;SDS011;3465;42.144;24.722;2022-07-29T09:03:36;3.53;;;2.90;;
6852;SDS011;3465;42.144;24.722;2022-07-29T09:06:02;4.30;;;3.10;;
6852;SDS011;3465;42.144;24.722;2022-07-29T09:08:30;4.57;;;2.65;;
6852;SDS011;3465;42.144;24.722;2022-07-29T09:10:56;4.22;;;2.90;;
6852;SDS011;3465;42.144;24.722;2022-07-29T09:13:22;5.18;;;2.60;;
6852;SDS011;3465;42.144;24.722;2022-07-29T09:15:48;3.88;;;2.42;;
6852;SDS011;3465;42.144;24.722;2022-07-29T09:21:04;3.22;;;2.78;;
6852;SDS011;3465;42.144;24.722;2022-07-29T09:26:39;3.00;;;2.60;;
6852;SDS011;3465;42.144;24.722;2022-07-29T09:29:12;2.83;;;2.47;;
6852;SDS011;3465;42.144;24.722;2022-07-29T09:31:43;4.03;;;2.45;;
6852;SDS011;3465;42.144;24.722;2022-07-29T09:34:11;5.13;;;2.20;;
6852;SDS011;3465;42.144;24.722;2022-07-29T09:36:41;3.90;;;2.42;;
6852;SDS011;3465;42.144;24.722;2022-07-29T09:39:12;4.68;;;2.75;;
6852;SDS011;3465;42.144;24.722;2022-07-29T09:41:52;3.28;;;2.35;;
6852;SDS011;3465;42.144;24.722;2022-07-29T09:44:21;6.88;;;2.20;;
6852;SDS011;3465;42.144;24.722;2022-07-29T09:46:55;7.40;;;2.22;;
6852;SDS011;3465;42.144;24.722;2022-07-29T09:49:22;4.93;;;2.60;;
6852;SDS011;3465;42.144;24.722;2022-07-29T09:51:58;4.45;;;2.33;;
6852;SDS011;3465;42.144;24.722;2022-07-29T09:54:25;4.40;;;2.60;;
6852;SDS011;3465;42.144;24.722;2022-07-29T09:56:52;4.53;;;2.70;;
6852;SDS011;3465;42.144;24.722;2022-07-29T09:59:19;3.95;;;2.65;;
6852;SDS011;3465;42.144;24.722;2022-07-29T10:01:47;4.25;;;2.60;;
6852;SDS011;3465;42.144;24.722;2022-07-29T10:04:14;4.70;;;2.50;;
6852;SDS011;3465;42.144;24.722;2022-07-29T10:06:56;4.93;;;2.63;;
6852;SDS011;3465;42.144;24.722;2022-07-29T10:09:22;2.33;;;2.13;;
6852;SDS011;3465;42.144;24.722;2022-07-29T10:14:39;2.30;;;2.10;;
6852;SDS011;3465;42.144;24.722;2022-07-29T10:17:07;2.40;;;2.20;;
6852;SDS011;3465;42.144;24.722;2022-07-29T10:19:33;2.35;;;2.10;;
6852;SDS011;3465;42.144;24.722;2022-07-29T10:22:00;2.83;;;2.22;;
6852;SDS011;3465;42.144;24.722;2022-07-29T10:24:33;5.45;;;2.35;;
6852;SDS011;3465;42.144;24.722;2022-07-29T10:27:01;6.47;;;2.35;;
6852;SDS011;3465;42.144;24.722;2022-07-29T10:29:28;5.35;;;2.60;;
6852;SDS011;3465;42.144;24.722;2022-07-29T10:37:26;5.95;;;2.58;;
6852;SDS011;3465;42.144;24.722;2022-07-29T10:43:14;2.63;;;2.20;;
6852;SDS011;3465;42.144;24.722;2022-07-29T10:45:45;2.63;;;2.42;;
6852;SDS011;3465;42.144;24.722;2022-07-29T10:48:13;2.75;;;2.35;;
6852;SDS011;3465;42.144;24.722;2022-07-29T10:53:45;2.40;;;2.20;;
6852;SDS011;3465;42.144;24.722;2022-07-29T10:56:28;3.00;;;2.55;;
6852;SDS011;3465;42.144;24.722;2022-07-29T11:01:43;5.40;;;2.63;;
6852;SDS011;3465;42.144;24.722;2022-07-29T11:04:08;4.18;;;2.38;;
6852;SDS011;3465;42.144;24.722;2022-07-29T11:09:39;4.20;;;2.63;;
6852;SDS011;3465;42.144;24.722;2022-07-29T11:15:14;4.97;;;2.63;;
6852;SDS011;3465;42.144;24.722;2022-07-29T11:23:43;2.60;;;2.40;;
6852;SDS011;3465;42.144;24.722;2022-07-29T11:28:59;5.40;;;2.30;;
6852;SDS011;3465;42.144;24.722;2022-07-29T11:31:36;3.70;;;2.60;;
6852;SDS011;3465;42.144;24.722;2022-07-29T11:44:56;5.22;;;3.05;;
6852;SDS011;3465;42.144;24.722;2022-07-29T11:47:25;4.95;;;2.92;;
6852;SDS011;3465;42.144;24.722;2022-07-29T11:49:52;3.03;;;2.50;;
6852;SDS011;3465;42.144;24.722;2022-07-29T11:52:19;3.08;;;2.67;;
6852;SDS011;3465;42.144;24.722;2022-07-29T11:54:47;4.25;;;2.60;;
6852;SDS011;3465;42.144;24.722;2022-07-29T11:57:17;6.05;;;2.83;;
6852;SDS011;3465;42.144;24.722;2022-07-29T11:59:44;7.63;;;2.75;;
6852;SDS011;3465;42.144;24.722;2022-07-29T12:02:11;5.03;;;2.70;;
6852;SDS011;3465;42.144;24.722;2022-07-29T12:04:54;3.50;;;2.70;;
6852;SDS011;3465;42.144;24.722;2022-07-29T12:07:28;4.60;;;2.70;;
6852;SDS011;3465;42.144;24.722;2022-07-29T12:09:54;4.68;;;2.78;;
6852;SDS011;3465;42.144;24.722;2022-07-29T12:12:20;9.35;;;3.30;;
6852;SDS011;3465;42.144;24.722;2022-07-29T12:14:46;4.72;;;2.50;;
6852;SDS011;3465;42.144;24.722;2022-07-29T12:17:30;5.95;;;2.65;;
6852;SDS011;3465;42.144;24.722;2022-07-29T12:20:01;3.90;;;2.60;;
6852;SDS011;3465;42.144;24.722;2022-07-29T12:22:31;5.40;;;2.50;;
6852;SDS011;3465;42.144;24.722;2022-07-29T12:25:06;3.92;;;2.53;;
6852;SDS011;3465;42.144;24.722;2022-07-29T12:27:33;5.85;;;2.42;;
6852;SDS011;3465;42.144;24.722;2022-07-29T12:30:00;6.40;;;2.70;;
6852;SDS011;3465;42.144;24.722;2022-07-29T12:32:35;5.25;;;2.50;;
6852;SDS011;3465;42.144;24.722;2022-07-29T12:35:04;2.88;;;2.33;;
6852;SDS011;3465;42.144;24.722;2022-07-29T12:37:35;4.15;;;2.42;;
6852;SDS011;3465;42.144;24.722;2022-07-29T12:40:03;4.88;;;2.67;;
6852;SDS011;3465;42.144;24.722;2022-07-29T12:42:29;5.60;;;2.50;;
6852;SDS011;3465;42.144;24.722;2022-07-29T12:44:55;6.05;;;2.55;;
6852;SDS011;3465;42.144;24.722;2022-07-29T12:47:21;4.22;;;2.63;;
6852;SDS011;3465;42.144;24.722;2022-07-29T12:49:47;5.28;;;2.40;;
6852;SDS011;3465;42.144;24.722;2022-07-29T12:52:30;4.32;;;2.55;;
6852;SDS011;3465;42.144;24.722;2022-07-29T12:54:57;6.63;;;2.78;;
6852;SDS011;3465;42.144;24.722;2022-07-29T12:57:23;5.00;;;2.80;;
6852;SDS011;3465;42.144;24.722;2022-07-29T13:02:30;3.38;;;2.47;;
6852;SDS011;3465;42.144;24.722;2022-07-29T13:04:56;4.05;;;2.67;;
6852;SDS011;3465;42.144;24.722;2022-07-29T13:07:26;2.85;;;2.65;;
6852;SDS011;3465;42.144;24.722;2022-07-29T13:09:54;3.67;;;2.80;;
6852;SDS011;3465;42.144;24.722;2022-07-29T13:12:20;7.53;;;2.80;;
6852;SDS011;3465;42.144;24.722;2022-07-29T13:14:48;4.72;;;2.85;;
6852;SDS011;3465;42.144;24.722;2022-07-29T13:17:18;4.82;;;2.88;;
6852;SDS011;3465;42.144;24.722;2022-07-29T13:19:51;6.18;;;3.22;;
6852;SDS011;3465;42.144;24.722;2022-07-29T13:22:20;3.80;;;2.90;;
6852;SDS011;3465;42.144;24.722;2022-07-29T13:24:50;4.03;;;2.97;;
6852;SDS011;3465;42.144;24.722;2022-07-29T13:27:17;6.90;;;3.00;;
6852;SDS011;3465;42.144;24.722;2022-07-29T13:29:43;5.18;;;3.20;;
6852;SDS011;3465;42.144;24.722;2022-07-29T13:32:09;4.35;;;2.83;;
6852;SDS011;3465;42.144;24.722;2022-07-29T13:34:35;4.93;;;3.00;;
6852;SDS011;3465;42.144;24.722;2022-07-29T13:37:00;3.47;;;3.00;;
6852;SDS011;3465;42.144;24.722;2022-07-29T13:39:29;10.75;;;3.50;;
6852;SDS011;3465;42.144;24.722;2022-07-29T13:41:55;3.78;;;2.88;;
6852;SDS011;3465;42.144;24.722;2022-07-29T13:44:20;3.88;;;3.20;;
6852;SDS011;3465;42.144;24.722;2022-07-29T13:46:46;6.25;;;3.20;;
6852;SDS011;3465;42.144;24.722;2022-07-29T13:49:11;8.18;;;3.30;;
6852;SDS011;3465;42.144;24.722;2022-07-29T13:51:37;11.73;;;3.25;;
6852;SDS011;3465;42.144;24.722;2022-07-29T13:54:03;4.50;;;2.95;;
6852;SDS011;3465;42.144;24.722;2022-07-29T13:56:29;5.80;;;3.10;;
6852;SDS011;3465;42.144;24.722;2022-07-29T13:58:57;4.65;;;3.42;;
6852;SDS011;3465;42.144;24.722;2022-07-29T14:01:23;4.03;;;2.88;;
6852;SDS011;3465;42.144;24.722;2022-07-29T14:03:49;4.68;;;3.13;;
6852;SDS011;3465;42.144;24.722;2022-07-29T14:06:15;4.85;;;3.08;;
6852;SDS011;3465;42.144;24.722;2022-07-29T14:08:40;6.63;;;2.95;;
6852;SDS011;3465;42.144;24.722;2022-07-29T14:11:05;3.88;;;2.70;;
6852;SDS011;3465;42.144;24.722;2022-07-29T14:13:31;7.18;;;2.90;;
6852;SDS011;3465;42.144;24.722;2022-07-29T14:15:56;7.60;;;2.90;;
6852;SDS011;3465;42.144;24.722;2022-07-29T14:18:22;4.07;;;3.00;;
6852;SDS011;3465;42.144;24.722;2022-07-29T14:20:47;4.53;;;3.00;;
6852;SDS011;3465;42.144;24.722;2022-07-29T14:23:13;3.45;;;2.75;;
6852;SDS011;3465;42.144;24.722;2022-07-29T14:25:38;6.30;;;2.90;;
6852;SDS011;3465;42.144;24.722;2022-07-29T14:28:04;10.30;;;2.90;;
6852;SDS011;3465;42.144;24.722;2022-07-29T14:30:29;3.30;;;3.00;;
6852;SDS011;3465;42.144;24.722;2022-07-29T14:32:54;5.55;;;2.63;;
6852;SDS011;3465;42.144;24.722;2022-07-29T14:35:20;5.53;;;2.80;;
6852;SDS011;3465;42.144;24.722;2022-07-29T14:37:45;4.32;;;2.50;;
6852;SDS011;3465;42.144;24.722;2022-07-29T14:40:11;3.95;;;2.55;;
6852;SDS011;3465;42.144;24.722;2022-07-29T14:42:36;3.55;;;2.80;;
6852;SDS011;3465;42.144;24.722;2022-07-29T14:45:03;4.45;;;3.10;;
6852;SDS011;3465;42.144;24.722;2022-07-29T14:47:30;7.18;;;2.60;;
6852;SDS011;3465;42.144;24.722;2022-07-29T14:49:55;7.57;;;2.75;;
6852;SDS011;3465;42.144;24.722;2022-07-29T14:52:21;7.60;;;2.67;;
6852;SDS011;3465;42.144;24.722;2022-07-29T14:54:46;6.32;;;2.80;;
6852;SDS011;3465;42.144;24.722;2022-07-29T14:57:12;3.42;;;2.55;;
6852;SDS011;3465;42.144;24.722;2022-07-29T14:59:37;4.55;;;2.53;;
6852;SDS011;3465;42.144;24.722;2022-07-29T15:02:03;6.60;;;2.50;;
6852;SDS011;3465;42.144;24.722;2022-07-29T15:04:28;7.03;;;2.60;;
6852;SDS011;3465;42.144;24.722;2022-07-29T15:06:53;4.28;;;3.00;;
6852;SDS011;3465;42.144;24.722;2022-07-29T15:09:19;4.75;;;2.42;;
6852;SDS011;3465;42.144;24.722;2022-07-29T15:11:44;6.03;;;2.92;;
6852;SDS011;3465;42.144;24.722;2022-07-29T15:14:10;3.55;;;2.80;;
6852;SDS011;3465;42.144;24.722;2022-07-29T15:16:36;4.28;;;2.50;;
6852;SDS011;3465;42.144;24.722;2022-07-29T15:19:02;4.20;;;2.60;;
6852;SDS011;3465;42.144;24.722;2022-07-29T15:21:28;4.00;;;2.65;;
6852;SDS011;3465;42.144;24.722;2022-07-29T15:23:57;5.03;;;3.00;;
6852;SDS011;3465;42.144;24.722;2022-07-29T15:26:25;8.32;;;3.25;;
6852;SDS011;3465;42.144;24.722;2022-07-29T15:28:50;4.07;;;2.40;;
6852;SDS011;3465;42.144;24.722;2022-07-29T15:31:16;7.15;;;2.95;;
6852;SDS011;3465;42.144;24.722;2022-07-29T15:33:43;3.50;;;2.80;;
6852;SDS011;3465;42.144;24.722;2022-07-29T15:36:09;4.78;;;2.50;;
6852;SDS011;3465;42.144;24.722;2022-07-29T15:38:37;5.40;;;2.92;;
6852;SDS011;3465;42.144;24.722;2022-07-29T15:41:02;3.95;;;2.60;;
6852;SDS011;3465;42.144;24.722;2022-07-29T15:43:28;3.47;;;2.60;;
6852;SDS011;3465;42.144;24.722;2022-07-29T15:45:53;4.85;;;2.83;;
6852;SDS011;3465;42.144;24.722;2022-07-29T15:48:38;3.97;;;2.60;;
6852;SDS011;3465;42.144;24.722;2022-07-29T15:51:03;5.93;;;2.90;;
6852;SDS011;3465;42.144;24.722;2022-07-29T15:53:29;7.43;;;3.00;;
6852;SDS011;3465;42.144;24.722;2022-07-29T15:55:54;4.18;;;3.00;;
6852;SDS011;3465;42.144;24.722;2022-07-29T15:58:20;5.22;;;3.03;;
6852;SDS011;3465;42.144;24.722;2022-07-29T16:00:45;5.68;;;3.05;;
6852;SDS011;3465;42.144;24.722;2022-07-29T16:03:10;3.47;;;2.92;;
6852;SDS011;3465;42.144;24.722;2022-07-29T16:05:36;4.15;;;3.15;;